sensor_id;sensor_type;location;lat;lon;timestamp;temperature;humidity
12847;DHT22;6492;48.128;8.320;2022-12-16T00:00:40;-3.10;67.90
12847;DHT22;6492;48.128;8.320;2022-12-16T00:04:43;-3.10;67.90
12847;DHT22;6492;48.128;8.320;2022-12-16T00:08:46;-3.10;67.90
12847;DHT22;6492;48.128;8.320;2022-12-16T00:12:48;-3.10;67.90
12847;DHT22;6492;48.128;8.320;2022-12-16T00:16:50;-3.10;67.90
12847;DHT22;6492;48.128;8.320;2022-12-16T00:20:54;-3.10;68.00
12847;DHT22;6492;48.128;8.320;2022-12-16T00:24:56;-3.10;68.00
12847;DHT22;6492;48.128;8.320;2022-12-16T00:28:57;-3.10;68.20
12847;DHT22;6492;48.128;8.320;2022-12-16T00:32:59;-3.10;67.70
12847;DHT22;6492;48.128;8.320;2022-12-16T00:37:02;-3.10;67.70
12847;DHT22;6492;48.128;8.320;2022-12-16T00:41:04;-3.10;67.70
12847;DHT22;6492;48.128;8.320;2022-12-16T00:45:09;-3.10;67.70
12847;DHT22;6492;48.128;8.320;2022-12-16T00:49:11;-3.10;67.90
12847;DHT22;6492;48.128;8.320;2022-12-16T00:53:14;-3.10;67.80
12847;DHT22;6492;48.128;8.320;2022-12-16T00:57:16;-3.20;67.70
12847;DHT22;6492;48.128;8.320;2022-12-16T01:01:52;-3.20;67.50
12847;DHT22;6492;48.128;8.320;2022-12-16T01:05:53;-3.20;67.30
12847;DHT22;6492;48.128;8.320;2022-12-16T01:09:56;-3.20;67.40
12847;DHT22;6492;48.128;8.320;2022-12-16T01:13:59;-3.30;67.50
12847;DHT22;6492;48.128;8.320;2022-12-16T01:18:00;-3.30;67.80
12847;DHT22;6492;48.128;8.320;2022-12-16T01:22:02;-3.30;67.90
12847;DHT22;6492;48.128;8.320;2022-12-16T01:26:06;-3.20;67.90
12847;DHT22;6492;48.128;8.320;2022-12-16T01:30:09;-3.30;68.10
12847;DHT22;6492;48.128;8.320;2022-12-16T01:34:11;-3.20;68.10
12847;DHT22;6492;48.128;8.320;2022-12-16T01:38:13;-3.30;67.90
12847;DHT22;6492;48.128;8.320;2022-12-16T01:42:18;-3.30;68.10
12847;DHT22;6492;48.128;8.320;2022-12-16T01:46:22;-3.30;67.90
12847;DHT22;6492;48.128;8.320;2022-12-16T01:50:25;-3.30;68.00
12847;DHT22;6492;48.128;8.320;2022-12-16T01:54:30;-3.30;68.10
12847;DHT22;6492;48.128;8.320;2022-12-16T01:58:38;-3.30;67.90
12847;DHT22;6492;48.128;8.320;2022-12-16T02:02:42;-3.30;67.90
12847;DHT22;6492;48.128;8.320;2022-12-16T02:06:44;-3.30;67.90
12847;DHT22;6492;48.128;8.320;2022-12-16T02:11:04;-3.30;68.10
12847;DHT22;6492;48.128;8.320;2022-12-16T02:15:23;-3.30;68.00
12847;DHT22;6492;48.128;8.320;2022-12-16T02:20:08;-3.30;68.00
12847;DHT22;6492;48.128;8.320;2022-12-16T02:24:35;-3.30;67.90
12847;DHT22;6492;48.128;8.320;2022-12-16T02:29:02;-3.30;67.80
12847;DHT22;6492;48.128;8.320;2022-12-16T02:33:19;-3.30;67.80
12847;DHT22;6492;48.128;8.320;2022-12-16T02:37:32;-3.40;67.60
12847;DHT22;6492;48.128;8.320;2022-12-16T02:41:47;-3.40;67.50
12847;DHT22;6492;48.128;8.320;2022-12-16T02:45:51;-3.40;67.40
12847;DHT22;6492;48.128;8.320;2022-12-16T02:49:55;-3.50;67.40
12847;DHT22;6492;48.128;8.320;2022-12-16T02:53:57;-3.50;67.50
12847;DHT22;6492;48.128;8.320;2022-12-16T02:58:03;-3.50;67.50
12847;DHT22;6492;48.128;8.320;2022-12-16T03:02:11;-3.50;68.40
12847;DHT22;6492;48.128;8.320;2022-12-16T03:06:16;-3.50;67.50
12847;DHT22;6492;48.128;8.320;2022-12-16T03:10:21;-3.50;67.20
12847;DHT22;6492;48.128;8.320;2022-12-16T03:14:28;-3.50;67.30
12847;DHT22;6492;48.128;8.320;2022-12-16T03:18:33;-3.50;67.40
12847;DHT22;6492;48.128;8.320;2022-12-16T03:22:40;-3.50;67.50
12847;DHT22;6492;48.128;8.320;2022-12-16T03:26:48;-3.50;67.40
12847;DHT22;6492;48.128;8.320;2022-12-16T03:30:57;-3.50;67.30
12847;DHT22;6492;48.128;8.320;2022-12-16T03:35:06;-3.50;67.20
12847;DHT22;6492;48.128;8.320;2022-12-16T03:39:12;-3.40;67.30
12847;DHT22;6492;48.128;8.320;2022-12-16T03:43:15;-3.40;67.20
12847;DHT22;6492;48.128;8.320;2022-12-16T03:47:17;-3.40;67.10
12847;DHT22;6492;48.128;8.320;2022-12-16T03:51:19;-3.40;67.10
12847;DHT22;6492;48.128;8.320;2022-12-16T03:55:22;-3.30;67.20
12847;DHT22;6492;48.128;8.320;2022-12-16T03:59:24;-3.30;67.70
12847;DHT22;6492;48.128;8.320;2022-12-16T04:03:26;-3.30;67.10
12847;DHT22;6492;48.128;8.320;2022-12-16T04:07:28;-3.30;67.10
12847;DHT22;6492;48.128;8.320;2022-12-16T04:11:31;-3.30;67.10
12847;DHT22;6492;48.128;8.320;2022-12-16T04:15:50;-3.30;67.10
12847;DHT22;6492;48.128;8.320;2022-12-16T04:20:15;-3.30;66.70
12847;DHT22;6492;48.128;8.320;2022-12-16T04:24:34;-3.30;66.40
12847;DHT22;6492;48.128;8.320;2022-12-16T04:28:37;-3.40;65.70
12847;DHT22;6492;48.128;8.320;2022-12-16T04:32:39;-3.30;65.20
12847;DHT22;6492;48.128;8.320;2022-12-16T04:37:00;-3.30;64.70
12847;DHT22;6492;48.128;8.320;2022-12-16T04:41:20;-3.40;64.10
12847;DHT22;6492;48.128;8.320;2022-12-16T04:45:40;-3.40;64.00
12847;DHT22;6492;48.128;8.320;2022-12-16T04:49:59;-3.40;64.00
12847;DHT22;6492;48.128;8.320;2022-12-16T04:54:18;-3.40;64.10
12847;DHT22;6492;48.128;8.320;2022-12-16T04:58:37;-3.40;63.80
12847;DHT22;6492;48.128;8.320;2022-12-16T05:02:58;-3.40;63.70
12847;DHT22;6492;48.128;8.320;2022-12-16T05:07:17;-3.40;63.70
12847;DHT22;6492;48.128;8.320;2022-12-16T05:11:36;-3.40;63.60
12847;DHT22;6492;48.128;8.320;2022-12-16T05:15:57;-3.40;63.40
12847;DHT22;6492;48.128;8.320;2022-12-16T05:20:17;-3.40;63.20
12847;DHT22;6492;48.128;8.320;2022-12-16T05:24:37;-3.50;62.90
12847;DHT22;6492;48.128;8.320;2022-12-16T05:29:07;-3.50;62.70
12847;DHT22;6492;48.128;8.320;2022-12-16T05:33:27;-3.50;62.40
12847;DHT22;6492;48.128;8.320;2022-12-16T05:37:47;-3.50;62.30
12847;DHT22;6492;48.128;8.320;2022-12-16T05:42:07;-3.60;61.70
12847;DHT22;6492;48.128;8.320;2022-12-16T05:46:26;-3.60;61.50
12847;DHT22;6492;48.128;8.320;2022-12-16T05:50:45;-3.60;61.50
12847;DHT22;6492;48.128;8.320;2022-12-16T05:55:07;-3.60;61.20
12847;DHT22;6492;48.128;8.320;2022-12-16T05:59:26;-3.70;61.10
12847;DHT22;6492;48.128;8.320;2022-12-16T06:03:45;-3.70;61.10
12847;DHT22;6492;48.128;8.320;2022-12-16T06:08:04;-3.70;61.10
12847;DHT22;6492;48.128;8.320;2022-12-16T06:12:25;-3.70;60.90
12847;DHT22;6492;48.128;8.320;2022-12-16T06:16:44;-3.60;60.90
12847;DHT22;6492;48.128;8.320;2022-12-16T06:21:03;-3.70;60.90
12847;DHT22;6492;48.128;8.320;2022-12-16T06:25:23;-3.60;60.90
12847;DHT22;6492;48.128;8.320;2022-12-16T06:29:49;-3.60;61.60
12847;DHT22;6492;48.128;8.320;2022-12-16T06:34:08;-3.60;60.70
12847;DHT22;6492;48.128;8.320;2022-12-16T06:38:27;-3.60;61.00
12847;DHT22;6492;48.128;8.320;2022-12-16T06:42:46;-3.60;60.20
12847;DHT22;6492;48.128;8.320;2022-12-16T06:47:07;-3.60;60.20
12847;DHT22;6492;48.128;8.320;2022-12-16T06:51:26;-3.60;60.40
12847;DHT22;6492;48.128;8.320;2022-12-16T06:55:45;-3.60;60.70
12847;DHT22;6492;48.128;8.320;2022-12-16T07:00:07;-3.60;60.80
12847;DHT22;6492;48.128;8.320;2022-12-16T07:04:27;-3.60;61.10
12847;DHT22;6492;48.128;8.320;2022-12-16T07:08:47;-3.50;61.40
12847;DHT22;6492;48.128;8.320;2022-12-16T07:13:06;-3.50;61.60
12847;DHT22;6492;48.128;8.320;2022-12-16T07:17:26;-3.50;61.70
12847;DHT22;6492;48.128;8.320;2022-12-16T07:21:48;-3.50;61.90
12847;DHT22;6492;48.128;8.320;2022-12-16T07:26:08;-3.50;62.20
12847;DHT22;6492;48.128;8.320;2022-12-16T07:30:27;-3.40;62.20
12847;DHT22;6492;48.128;8.320;2022-12-16T07:34:46;-3.40;62.40
12847;DHT22;6492;48.128;8.320;2022-12-16T07:39:10;-3.40;62.40
12847;DHT22;6492;48.128;8.320;2022-12-16T07:43:30;-3.30;62.70
12847;DHT22;6492;48.128;8.320;2022-12-16T07:47:49;-3.40;62.40
12847;DHT22;6492;48.128;8.320;2022-12-16T07:52:10;-3.30;62.40
12847;DHT22;6492;48.128;8.320;2022-12-16T07:56:31;-3.30;62.70
12847;DHT22;6492;48.128;8.320;2022-12-16T08:00:59;-3.30;62.70
12847;DHT22;6492;48.128;8.320;2022-12-16T08:05:34;-3.20;62.60
12847;DHT22;6492;48.128;8.320;2022-12-16T08:09:54;-3.20;62.70
12847;DHT22;6492;48.128;8.320;2022-12-16T08:14:18;-3.10;62.90
12847;DHT22;6492;48.128;8.320;2022-12-16T08:18:49;-3.10;62.90
12847;DHT22;6492;48.128;8.320;2022-12-16T08:23:08;-3.10;62.90
12847;DHT22;6492;48.128;8.320;2022-12-16T08:27:27;-3.00;62.50
12847;DHT22;6492;48.128;8.320;2022-12-16T08:31:56;-3.00;62.20
12847;DHT22;6492;48.128;8.320;2022-12-16T08:36:20;-2.90;62.20
12847;DHT22;6492;48.128;8.320;2022-12-16T08:40:43;-2.90;61.50
12847;DHT22;6492;48.128;8.320;2022-12-16T08:45:30;-2.80;60.40
12847;DHT22;6492;48.128;8.320;2022-12-16T08:49:56;-2.80;59.60
12847;DHT22;6492;48.128;8.320;2022-12-16T08:54:15;-2.70;59.10
12847;DHT22;6492;48.128;8.320;2022-12-16T08:58:56;-2.70;58.00
12847;DHT22;6492;48.128;8.320;2022-12-16T09:03:15;-2.70;57.00
12847;DHT22;6492;48.128;8.320;2022-12-16T09:07:36;-2.70;57.00
12847;DHT22;6492;48.128;8.320;2022-12-16T09:11:56;-2.70;56.80
12847;DHT22;6492;48.128;8.320;2022-12-16T09:16:16;-2.70;56.70
12847;DHT22;6492;48.128;8.320;2022-12-16T09:20:35;-2.70;56.70
12847;DHT22;6492;48.128;8.320;2022-12-16T09:24:56;-2.60;57.20
12847;DHT22;6492;48.128;8.320;2022-12-16T09:29:15;-2.60;56.80
12847;DHT22;6492;48.128;8.320;2022-12-16T09:33:49;-2.60;56.80
12847;DHT22;6492;48.128;8.320;2022-12-16T09:38:11;-2.60;57.00
12847;DHT22;6492;48.128;8.320;2022-12-16T09:42:46;-2.60;55.60
12847;DHT22;6492;48.128;8.320;2022-12-16T09:47:17;-2.60;56.30
12847;DHT22;6492;48.128;8.320;2022-12-16T09:51:43;-2.50;56.30
12847;DHT22;6492;48.128;8.320;2022-12-16T09:56:06;-2.40;55.90
12847;DHT22;6492;48.128;8.320;2022-12-16T10:00:30;-2.40;55.70
12847;DHT22;6492;48.128;8.320;2022-12-16T10:04:51;-2.30;53.30
12847;DHT22;6492;48.128;8.320;2022-12-16T10:09:33;-2.40;52.10
12847;DHT22;6492;48.128;8.320;2022-12-16T10:14:03;-2.40;50.40
12847;DHT22;6492;48.128;8.320;2022-12-16T10:18:45;-2.50;50.20
12847;DHT22;6492;48.128;8.320;2022-12-16T10:23:12;-2.50;50.90
12847;DHT22;6492;48.128;8.320;2022-12-16T10:27:40;-2.50;51.40
12847;DHT22;6492;48.128;8.320;2022-12-16T10:32:09;-2.50;50.20
12847;DHT22;6492;48.128;8.320;2022-12-16T10:36:34;-2.50;49.20
12847;DHT22;6492;48.128;8.320;2022-12-16T10:40:56;-2.60;48.60
12847;DHT22;6492;48.128;8.320;2022-12-16T10:45:20;-2.60;49.20
12847;DHT22;6492;48.128;8.320;2022-12-16T10:49:41;-2.50;49.50
12847;DHT22;6492;48.128;8.320;2022-12-16T10:54:22;-2.40;49.40
12847;DHT22;6492;48.128;8.320;2022-12-16T10:58:49;-2.30;48.70
12847;DHT22;6492;48.128;8.320;2022-12-16T11:03:17;-2.20;47.00
12847;DHT22;6492;48.128;8.320;2022-12-16T11:07:38;-2.20;46.10
12847;DHT22;6492;48.128;8.320;2022-12-16T11:12:20;-2.20;45.60
12847;DHT22;6492;48.128;8.320;2022-12-16T11:16:40;-2.00;46.60
12847;DHT22;6492;48.128;8.320;2022-12-16T11:21:10;-1.80;46.70
12847;DHT22;6492;48.128;8.320;2022-12-16T11:25:30;-1.50;47.10
12847;DHT22;6492;48.128;8.320;2022-12-16T11:29:59;-1.20;45.20
12847;DHT22;6492;48.128;8.320;2022-12-16T11:34:19;-1.10;38.70
12847;DHT22;6492;48.128;8.320;2022-12-16T11:38:40;-1.00;38.60
12847;DHT22;6492;48.128;8.320;2022-12-16T11:43:04;-1.00;37.30
12847;DHT22;6492;48.128;8.320;2022-12-16T11:47:35;-1.00;37.80
12847;DHT22;6492;48.128;8.320;2022-12-16T11:52:00;-0.90;36.90
12847;DHT22;6492;48.128;8.320;2022-12-16T11:56:22;-0.90;35.90
12847;DHT22;6492;48.128;8.320;2022-12-16T12:00:48;-0.90;34.70
12847;DHT22;6492;48.128;8.320;2022-12-16T12:05:23;-0.90;33.40
12847;DHT22;6492;48.128;8.320;2022-12-16T12:09:48;-0.80;34.20
12847;DHT22;6492;48.128;8.320;2022-12-16T12:19:43;-0.60;34.10
12847;DHT22;6492;48.128;8.320;2022-12-16T12:24:15;-0.50;34.00
12847;DHT22;6492;48.128;8.320;2022-12-16T12:28:49;-0.50;32.70
12847;DHT22;6492;48.128;8.320;2022-12-16T12:33:22;-0.60;30.70
12847;DHT22;6492;48.128;8.320;2022-12-16T12:37:55;-0.70;31.70
12847;DHT22;6492;48.128;8.320;2022-12-16T12:42:32;-0.70;31.90
12847;DHT22;6492;48.128;8.320;2022-12-16T12:46:55;-0.60;31.00
12847;DHT22;6492;48.128;8.320;2022-12-16T12:51:24;-0.60;31.80
12847;DHT22;6492;48.128;8.320;2022-12-16T12:55:49;-0.60;31.60
12847;DHT22;6492;48.128;8.320;2022-12-16T13:00:24;-0.60;31.40
12847;DHT22;6492;48.128;8.320;2022-12-16T13:04:46;-0.60;30.80
12847;DHT22;6492;48.128;8.320;2022-12-16T13:09:23;-0.70;30.70
12847;DHT22;6492;48.128;8.320;2022-12-16T13:13:43;-0.70;30.80
12847;DHT22;6492;48.128;8.320;2022-12-16T13:18:23;-0.80;30.60
12847;DHT22;6492;48.128;8.320;2022-12-16T13:22:44;-0.70;31.00
12847;DHT22;6492;48.128;8.320;2022-12-16T13:27:11;-0.60;30.90
12847;DHT22;6492;48.128;8.320;2022-12-16T13:31:32;-0.30;31.10
12847;DHT22;6492;48.128;8.320;2022-12-16T13:35:53;-0.30;29.80
12847;DHT22;6492;48.128;8.320;2022-12-16T13:40:19;-0.30;29.30
12847;DHT22;6492;48.128;8.320;2022-12-16T13:45:13;-0.40;28.90
12847;DHT22;6492;48.128;8.320;2022-12-16T13:49:43;-0.70;28.30
12847;DHT22;6492;48.128;8.320;2022-12-16T13:54:06;-1.20;28.80
12847;DHT22;6492;48.128;8.320;2022-12-16T13:58:32;-1.40;29.90
12847;DHT22;6492;48.128;8.320;2022-12-16T14:02:53;-1.70;29.20
12847;DHT22;6492;48.128;8.320;2022-12-16T14:07:13;-1.90;29.70
12847;DHT22;6492;48.128;8.320;2022-12-16T14:11:44;-2.00;29.60
12847;DHT22;6492;48.128;8.320;2022-12-16T14:16:08;-2.20;30.40
12847;DHT22;6492;48.128;8.320;2022-12-16T14:20:34;-2.40;31.50
12847;DHT22;6492;48.128;8.320;2022-12-16T14:25:02;-2.60;31.40
12847;DHT22;6492;48.128;8.320;2022-12-16T14:29:28;-2.70;32.70
12847;DHT22;6492;48.128;8.320;2022-12-16T14:34:01;-2.90;33.40
12847;DHT22;6492;48.128;8.320;2022-12-16T14:38:22;-3.00;33.70
12847;DHT22;6492;48.128;8.320;2022-12-16T14:42:42;-3.10;34.20
12847;DHT22;6492;48.128;8.320;2022-12-16T14:47:03;-3.10;34.80
12847;DHT22;6492;48.128;8.320;2022-12-16T14:51:25;-3.10;35.40
12847;DHT22;6492;48.128;8.320;2022-12-16T14:55:44;-3.10;35.90
12847;DHT22;6492;48.128;8.320;2022-12-16T15:00:12;-3.10;36.00
12847;DHT22;6492;48.128;8.320;2022-12-16T15:04:46;-3.20;35.80
12847;DHT22;6492;48.128;8.320;2022-12-16T15:09:18;-3.30;35.80
12847;DHT22;6492;48.128;8.320;2022-12-16T15:13:40;-3.40;36.10
12847;DHT22;6492;48.128;8.320;2022-12-16T15:18:00;-3.40;36.50
12847;DHT22;6492;48.128;8.320;2022-12-16T15:22:17;-3.50;36.00
12847;DHT22;6492;48.128;8.320;2022-12-16T15:26:36;-3.60;36.40
12847;DHT22;6492;48.128;8.320;2022-12-16T15:30:56;-3.80;36.40
12847;DHT22;6492;48.128;8.320;2022-12-16T15:35:26;-3.90;36.70
12847;DHT22;6492;48.128;8.320;2022-12-16T15:39:54;-4.00;36.80
12847;DHT22;6492;48.128;8.320;2022-12-16T15:44:15;-4.20;37.40
12847;DHT22;6492;48.128;8.320;2022-12-16T15:48:36;-4.20;38.10
12847;DHT22;6492;48.128;8.320;2022-12-16T15:52:51;-4.20;38.60
12847;DHT22;6492;48.128;8.320;2022-12-16T15:57:28;-4.30;39.10
12847;DHT22;6492;48.128;8.320;2022-12-16T16:01:48;-4.30;39.90
12847;DHT22;6492;48.128;8.320;2022-12-16T16:06:15;-4.40;40.70
12847;DHT22;6492;48.128;8.320;2022-12-16T16:10:40;-4.40;41.40
12847;DHT22;6492;48.128;8.320;2022-12-16T16:15:03;-4.50;42.00
12847;DHT22;6492;48.128;8.320;2022-12-16T16:19:24;-4.50;42.40
12847;DHT22;6492;48.128;8.320;2022-12-16T16:23:44;-4.50;42.90
12847;DHT22;6492;48.128;8.320;2022-12-16T16:28:03;-4.50;43.00
12847;DHT22;6492;48.128;8.320;2022-12-16T16:32:25;-4.50;43.40
12847;DHT22;6492;48.128;8.320;2022-12-16T16:36:45;-4.40;44.10
12847;DHT22;6492;48.128;8.320;2022-12-16T16:41:12;-4.50;44.60
12847;DHT22;6492;48.128;8.320;2022-12-16T16:45:32;-4.50;45.50
12847;DHT22;6492;48.128;8.320;2022-12-16T16:49:52;-4.40;44.90
12847;DHT22;6492;48.128;8.320;2022-12-16T16:54:12;-4.50;45.10
12847;DHT22;6492;48.128;8.320;2022-12-16T16:58:32;-4.50;44.80
12847;DHT22;6492;48.128;8.320;2022-12-16T17:02:52;-4.60;44.90
12847;DHT22;6492;48.128;8.320;2022-12-16T17:07:13;-4.60;45.30
12847;DHT22;6492;48.128;8.320;2022-12-16T17:11:39;-4.60;45.50
12847;DHT22;6492;48.128;8.320;2022-12-16T17:16:21;-4.70;45.90
12847;DHT22;6492;48.128;8.320;2022-12-16T17:20:52;-4.60;46.00
12847;DHT22;6492;48.128;8.320;2022-12-16T17:25:14;-4.70;46.30
12847;DHT22;6492;48.128;8.320;2022-12-16T17:29:33;-4.70;45.50
12847;DHT22;6492;48.128;8.320;2022-12-16T17:33:53;-4.80;44.60
12847;DHT22;6492;48.128;8.320;2022-12-16T17:38:12;-4.80;45.00
12847;DHT22;6492;48.128;8.320;2022-12-16T17:42:34;-4.80;45.20
12847;DHT22;6492;48.128;8.320;2022-12-16T17:46:53;-4.90;44.20
12847;DHT22;6492;48.128;8.320;2022-12-16T17:51:29;-5.00;44.30
12847;DHT22;6492;48.128;8.320;2022-12-16T17:55:48;-5.00;44.50
12847;DHT22;6492;48.128;8.320;2022-12-16T18:00:37;-5.00;44.60
12847;DHT22;6492;48.128;8.320;2022-12-16T18:05:20;-5.10;44.50
12847;DHT22;6492;48.128;8.320;2022-12-16T18:09:51;-5.10;44.70
12847;DHT22;6492;48.128;8.320;2022-12-16T18:14:10;-5.10;44.60
12847;DHT22;6492;48.128;8.320;2022-12-16T18:18:34;-5.20;44.50
12847;DHT22;6492;48.128;8.320;2022-12-16T18:23:00;-5.20;44.60
12847;DHT22;6492;48.128;8.320;2022-12-16T18:27:19;-5.20;44.70
12847;DHT22;6492;48.128;8.320;2022-12-16T18:31:41;-5.30;44.80
12847;DHT22;6492;48.128;8.320;2022-12-16T18:36:02;-5.30;44.90
12847;DHT22;6492;48.128;8.320;2022-12-16T18:40:23;-5.30;45.00
12847;DHT22;6492;48.128;8.320;2022-12-16T18:44:55;-5.40;45.80
12847;DHT22;6492;48.128;8.320;2022-12-16T18:49:14;-5.40;45.40
12847;DHT22;6492;48.128;8.320;2022-12-16T18:53:40;-5.40;45.60
12847;DHT22;6492;48.128;8.320;2022-12-16T18:57:59;-5.40;45.80
12847;DHT22;6492;48.128;8.320;2022-12-16T19:02:18;-5.40;46.80
12847;DHT22;6492;48.128;8.320;2022-12-16T19:06:44;-5.40;46.20
12847;DHT22;6492;48.128;8.320;2022-12-16T19:11:09;-5.40;46.30
12847;DHT22;6492;48.128;8.320;2022-12-16T19:15:37;-5.40;46.50
12847;DHT22;6492;48.128;8.320;2022-12-16T19:19:57;-5.40;46.60
12847;DHT22;6492;48.128;8.320;2022-12-16T19:24:26;-5.40;46.00
12847;DHT22;6492;48.128;8.320;2022-12-16T19:28:46;-5.40;46.10
12847;DHT22;6492;48.128;8.320;2022-12-16T19:33:06;-5.40;46.20
12847;DHT22;6492;48.128;8.320;2022-12-16T19:37:25;-5.40;46.20
12847;DHT22;6492;48.128;8.320;2022-12-16T19:41:44;-5.40;46.30
12847;DHT22;6492;48.128;8.320;2022-12-16T19:46:06;-5.40;46.50
12847;DHT22;6492;48.128;8.320;2022-12-16T19:50:27;-5.40;46.80
12847;DHT22;6492;48.128;8.320;2022-12-16T19:54:54;-5.40;47.20
12847;DHT22;6492;48.128;8.320;2022-12-16T19:59:13;-5.40;47.30
12847;DHT22;6492;48.128;8.320;2022-12-16T20:03:33;-5.40;47.50
12847;DHT22;6492;48.128;8.320;2022-12-16T20:12:49;-5.40;47.90
12847;DHT22;6492;48.128;8.320;2022-12-16T20:17:08;-5.50;48.00
12847;DHT22;6492;48.128;8.320;2022-12-16T20:21:29;-5.40;48.20
12847;DHT22;6492;48.128;8.320;2022-12-16T20:26:04;-5.40;48.20
12847;DHT22;6492;48.128;8.320;2022-12-16T20:30:23;-5.40;48.60
12847;DHT22;6492;48.128;8.320;2022-12-16T20:34:43;-5.40;48.60
12847;DHT22;6492;48.128;8.320;2022-12-16T20:39:04;-5.40;48.80
12847;DHT22;6492;48.128;8.320;2022-12-16T20:43:23;-5.40;49.10
12847;DHT22;6492;48.128;8.320;2022-12-16T20:47:42;-5.30;49.30
12847;DHT22;6492;48.128;8.320;2022-12-16T20:52:20;-5.30;49.40
12847;DHT22;6492;48.128;8.320;2022-12-16T20:56:40;-5.40;48.80
12847;DHT22;6492;48.128;8.320;2022-12-16T21:01:00;-5.40;48.60
12847;DHT22;6492;48.128;8.320;2022-12-16T21:05:19;-5.40;48.40
12847;DHT22;6492;48.128;8.320;2022-12-16T21:09:38;-5.50;47.90
12847;DHT22;6492;48.128;8.320;2022-12-16T21:13:59;-5.50;47.30
12847;DHT22;6492;48.128;8.320;2022-12-16T21:18:18;-5.60;46.80
12847;DHT22;6492;48.128;8.320;2022-12-16T21:27:34;-5.70;47.00
12847;DHT22;6492;48.128;8.320;2022-12-16T21:32:13;-5.80;47.40
12847;DHT22;6492;48.128;8.320;2022-12-16T21:36:32;-5.80;48.00
12847;DHT22;6492;48.128;8.320;2022-12-16T21:41:10;-5.80;48.20
12847;DHT22;6492;48.128;8.320;2022-12-16T21:45:29;-5.90;48.50
12847;DHT22;6492;48.128;8.320;2022-12-16T21:49:49;-5.90;48.80
12847;DHT22;6492;48.128;8.320;2022-12-16T21:54:09;-5.90;48.80
12847;DHT22;6492;48.128;8.320;2022-12-16T21:58:28;-5.90;49.00
12847;DHT22;6492;48.128;8.320;2022-12-16T22:03:06;-6.00;50.00
12847;DHT22;6492;48.128;8.320;2022-12-16T22:07:27;-6.00;49.40
12847;DHT22;6492;48.128;8.320;2022-12-16T22:12:01;-6.00;49.70
12847;DHT22;6492;48.128;8.320;2022-12-16T22:16:20;-6.00;49.80
12847;DHT22;6492;48.128;8.320;2022-12-16T22:20:40;-6.00;49.90
12847;DHT22;6492;48.128;8.320;2022-12-16T22:25:00;-6.10;50.00
12847;DHT22;6492;48.128;8.320;2022-12-16T22:29:19;-6.10;50.00
12847;DHT22;6492;48.128;8.320;2022-12-16T22:33:38;-6.20;49.90
12847;DHT22;6492;48.128;8.320;2022-12-16T22:38:12;-6.20;50.30
12847;DHT22;6492;48.128;8.320;2022-12-16T22:42:33;-6.30;50.50
12847;DHT22;6492;48.128;8.320;2022-12-16T22:46:52;-6.30;51.40
12847;DHT22;6492;48.128;8.320;2022-12-16T22:51:12;-6.40;50.80
12847;DHT22;6492;48.128;8.320;2022-12-16T22:55:31;-6.40;51.10
12847;DHT22;6492;48.128;8.320;2022-12-16T22:59:52;-6.50;51.60
12847;DHT22;6492;48.128;8.320;2022-12-16T23:04:11;-6.50;51.80
12847;DHT22;6492;48.128;8.320;2022-12-16T23:08:31;-6.60;52.00
12847;DHT22;6492;48.128;8.320;2022-12-16T23:12:50;-6.60;52.10
12847;DHT22;6492;48.128;8.320;2022-12-16T23:17:11;-6.70;52.20
12847;DHT22;6492;48.128;8.320;2022-12-16T23:21:31;-6.80;51.80
12847;DHT22;6492;48.128;8.320;2022-12-16T23:25:54;-7.00;51.20
12847;DHT22;6492;48.128;8.320;2022-12-16T23:30:16;-7.20;50.60
12847;DHT22;6492;48.128;8.320;2022-12-16T23:34:40;-7.40;50.30
12847;DHT22;6492;48.128;8.320;2022-12-16T23:38:59;-7.60;50.80
12847;DHT22;6492;48.128;8.320;2022-12-16T23:43:18;-7.70;51.30
12847;DHT22;6492;48.128;8.320;2022-12-16T23:47:38;-7.80;51.50
12847;DHT22;6492;48.128;8.320;2022-12-16T23:52:02;-7.90;51.80
12847;DHT22;6492;48.128;8.320;2022-12-16T23:56:21;-8.10;52.00
